createdAt,value
2022-12-01T02:47:12.283Z,4.60
2022-12-01T02:49:50.319Z,3.70
2022-12-01T02:50:52.888Z,5.20
2022-12-01T02:51:56.803Z,4.60
2022-12-01T02:52:59.583Z,5.10
2022-12-01T02:54:02.670Z,4.70
2022-12-01T02:55:05.537Z,4.80
2022-12-01T02:56:10.756Z,4.50
2022-12-01T02:57:14.141Z,4.80
2022-12-01T02:58:17.204Z,4.60
2022-12-01T02:59:19.587Z,3.80
2022-12-01T03:00:25.186Z,4.10
2022-12-01T03:01:46.482Z,4.60
2022-12-01T03:03:01.615Z,4.60
2022-12-01T03:04:29.012Z,4.10
2022-12-01T03:05:44.197Z,4.40
2022-12-01T03:07:11.407Z,4.20
2022-12-01T03:08:34.365Z,4.10
2022-12-01T03:09:56.763Z,3.80
2022-12-01T03:11:01.010Z,4.70
2022-12-01T03:12:23.144Z,4.10
2022-12-01T03:13:44.712Z,3.70
2022-12-01T03:14:59.914Z,4.80
2022-12-01T03:16:27.252Z,4.80
2022-12-01T03:17:48.509Z,4.00
2022-12-01T03:18:56.634Z,5.20
2022-12-01T03:20:21.793Z,4.90
2022-12-01T03:21:27.753Z,3.80
2022-12-01T03:23:48.327Z,4.10
2022-12-01T03:24:50.761Z,3.80
2022-12-01T03:25:53.413Z,4.40
2022-12-01T03:26:56.588Z,2.70
2022-12-01T03:28:21.219Z,2.70
2022-12-01T03:29:10.874Z,3.60
2022-12-01T03:30:14.497Z,3.00
2022-12-01T03:31:18.400Z,4.20
2022-12-01T03:33:53.678Z,4.00
2022-12-01T03:34:58.829Z,3.50
2022-12-01T03:36:19.832Z,4.10
2022-12-01T03:38:37.456Z,4.70
2022-12-01T03:39:39.886Z,3.50
2022-12-01T03:40:42.009Z,3.10
2022-12-01T03:41:47.900Z,4.10
2022-12-01T03:42:56.153Z,4.20
2022-12-01T03:44:07.797Z,4.40
2022-12-01T03:45:19.765Z,4.40
2022-12-01T03:46:35.688Z,3.90
2022-12-01T03:47:38.872Z,1.70
2022-12-01T03:48:41.094Z,2.50
2022-12-01T03:49:43.389Z,3.30
2022-12-01T03:52:11.043Z,3.40
2022-12-01T03:53:23.248Z,4.50
2022-12-01T03:54:32.200Z,3.50
2022-12-01T03:55:37.630Z,3.60
2022-12-01T03:58:03.881Z,4.00
2022-12-01T03:59:06.771Z,3.40
2022-12-01T04:00:09.763Z,3.40
2022-12-01T04:01:13.771Z,4.20
2022-12-01T04:02:16.828Z,1.70
2022-12-01T04:03:19.957Z,3.55
2022-12-01T04:04:23.800Z,4.60
2022-12-01T04:05:25.857Z,3.80
2022-12-01T04:06:28.080Z,3.00
2022-12-01T04:07:30.210Z,3.30
2022-12-01T04:08:32.375Z,3.20
2022-12-01T04:09:34.619Z,3.40
2022-12-01T04:10:36.941Z,0.30
2022-12-01T04:11:39.034Z,2.60
2022-12-01T04:12:41.200Z,2.80
2022-12-01T04:13:44.554Z,3.10
2022-12-01T04:14:48.152Z,4.50
2022-12-01T04:15:51.703Z,4.40
2022-12-01T04:16:54.077Z,2.60
2022-12-01T04:17:56.132Z,3.20
2022-12-01T04:18:58.117Z,3.30
2022-12-01T04:20:00.193Z,4.20
2022-12-01T04:21:03.530Z,3.00
2022-12-01T04:22:07.727Z,2.09
2022-12-01T04:23:10.303Z,3.60
2022-12-01T04:24:13.155Z,2.80
2022-12-01T04:25:15.766Z,3.20
2022-12-01T04:26:17.857Z,2.90
2022-12-01T04:27:19.956Z,2.80
2022-12-01T04:28:22.041Z,3.00
2022-12-01T04:29:24.129Z,2.20
2022-12-01T04:30:26.204Z,3.50
2022-12-01T04:31:28.589Z,4.10
2022-12-01T04:32:31.241Z,4.00
2022-12-01T04:33:34.572Z,3.30
2022-12-01T04:34:36.717Z,3.80
2022-12-01T04:35:38.803Z,3.80
2022-12-01T04:36:40.972Z,4.30
2022-12-01T04:37:43.052Z,3.40
2022-12-01T04:38:45.409Z,3.20
2022-12-01T04:39:48.791Z,2.40
2022-12-01T04:40:51.261Z,3.60
2022-12-01T04:41:53.248Z,3.70
2022-12-01T04:42:55.540Z,2.70
2022-12-01T04:43:57.643Z,3.50
2022-12-01T04:44:59.957Z,3.80
2022-12-01T04:46:03.614Z,3.30
2022-12-01T04:47:06.536Z,4.80
2022-12-01T04:48:08.810Z,2.70
2022-12-01T04:49:11.711Z,3.60
2022-12-01T04:50:14.307Z,3.40
2022-12-01T04:51:16.647Z,1.20
2022-12-01T04:52:18.743Z,3.30
2022-12-01T04:53:20.821Z,3.70
2022-12-01T04:54:23.069Z,4.50
2022-12-01T04:55:26.926Z,3.64
2022-12-01T04:56:29.962Z,3.80
2022-12-01T04:57:32.538Z,3.00
2022-12-01T04:58:35.619Z,4.20
2022-12-01T04:59:37.933Z,2.80
2022-12-01T05:00:40.676Z,4.10
2022-12-01T05:01:43.155Z,4.00
2022-12-01T05:02:46.154Z,4.20
2022-12-01T05:03:48.736Z,4.20
2022-12-01T05:04:51.088Z,2.80
2022-12-01T05:07:32.444Z,4.20
2022-12-01T05:08:34.624Z,3.80
2022-12-01T05:09:36.970Z,3.50
2022-12-01T05:10:39.275Z,3.50
2022-12-01T05:11:42.903Z,3.40
2022-12-01T05:12:45.434Z,3.30
2022-12-01T05:13:47.851Z,3.90
2022-12-01T05:14:51.724Z,3.00
2022-12-01T05:15:54.447Z,4.40
2022-12-01T05:16:56.839Z,3.00
2022-12-01T05:17:58.948Z,3.50
2022-12-01T05:19:03.104Z,3.50
2022-12-01T05:20:06.506Z,4.30
2022-12-01T05:21:10.266Z,3.40
2022-12-01T05:22:12.402Z,2.50
2022-12-01T05:23:17.022Z,1.70
2022-12-01T05:24:19.911Z,3.10
2022-12-01T05:25:22.048Z,4.00
2022-12-01T05:26:25.222Z,3.70
2022-12-01T05:27:28.712Z,3.00
2022-12-01T05:28:31.309Z,3.20
2022-12-01T05:29:33.447Z,3.50
2022-12-01T05:30:35.558Z,3.10
2022-12-01T05:31:37.715Z,3.50
2022-12-01T05:32:40.037Z,3.20
2022-12-01T05:33:42.660Z,4.20
2022-12-01T05:34:45.295Z,3.30
2022-12-01T05:35:48.496Z,3.20
2022-12-01T05:36:50.648Z,4.00
2022-12-01T05:37:52.686Z,4.20
2022-12-01T05:38:54.983Z,2.90
2022-12-01T05:39:57.355Z,1.00
2022-12-01T05:41:00.671Z,3.30
2022-12-01T05:42:03.469Z,4.50
2022-12-01T05:43:06.068Z,3.60
2022-12-01T05:44:08.123Z,3.80
2022-12-01T05:45:11.416Z,2.60
2022-12-01T05:46:14.024Z,2.60
2022-12-01T05:47:16.259Z,3.90
2022-12-01T05:48:18.480Z,3.40
2022-12-01T05:49:20.694Z,4.00
2022-12-01T05:50:23.483Z,3.20
2022-12-01T05:51:26.510Z,1.80
2022-12-01T05:52:28.635Z,3.40
2022-12-01T05:53:31.282Z,4.30
2022-12-01T05:54:34.793Z,4.10
2022-12-01T05:55:36.890Z,2.40
2022-12-01T05:56:39.620Z,3.60
2022-12-01T05:57:41.723Z,4.00
2022-12-01T05:58:43.736Z,3.60
2022-12-01T05:59:45.831Z,4.00
2022-12-01T06:00:48.341Z,3.50
2022-12-01T06:01:50.602Z,3.60
2022-12-01T06:02:53.143Z,4.00
2022-12-01T06:03:55.352Z,4.30
2022-12-01T06:04:58.072Z,3.60
2022-12-01T06:06:00.247Z,2.90
2022-12-01T06:07:04.544Z,3.60
2022-12-01T06:08:06.663Z,3.40
2022-12-01T06:09:09.276Z,4.40
2022-12-01T06:10:12.279Z,4.30
2022-12-01T06:11:14.449Z,3.80
2022-12-01T06:12:16.558Z,4.10
2022-12-01T06:13:18.764Z,4.10
2022-12-01T06:14:20.834Z,3.90
2022-12-01T06:15:23.473Z,3.80
2022-12-01T06:16:25.911Z,3.55
2022-12-01T06:17:28.723Z,3.91
2022-12-01T06:18:32.306Z,3.80
2022-12-01T06:19:35.421Z,4.50
2022-12-01T06:20:37.499Z,3.60
2022-12-01T06:21:40.618Z,4.90
2022-12-01T06:22:42.745Z,3.80
2022-12-01T06:23:45.691Z,3.45
2022-12-01T06:24:48.693Z,4.10
2022-12-01T06:25:51.296Z,3.80
2022-12-01T06:26:53.526Z,4.40
2022-12-01T06:29:09.515Z,3.90
2022-12-01T06:30:13.025Z,4.00
2022-12-01T10:23:10.315Z,8.90
2022-12-01T10:25:58.622Z,9.50
2022-12-01T10:27:04.974Z,12.70
2022-12-01T10:28:13.887Z,12.30
2022-12-01T10:30:41.138Z,16.40
2022-12-01T10:31:51.138Z,18.00
2022-12-01T10:32:56.211Z,20.20
2022-12-01T10:34:02.597Z,20.30
2022-12-01T10:35:05.072Z,19.80
2022-12-01T10:36:09.671Z,21.50
2022-12-01T10:37:22.671Z,21.50
2022-12-01T10:38:26.382Z,22.20
2022-12-01T10:39:37.580Z,21.30
2022-12-01T10:40:41.370Z,22.30
2022-12-01T10:41:45.014Z,23.40
2022-12-01T10:42:50.841Z,28.70
2022-12-01T10:43:58.659Z,30.30
2022-12-01T10:45:05.580Z,29.90
2022-12-01T10:46:23.558Z,33.20
2022-12-01T10:47:28.172Z,42.50
2022-12-01T10:48:31.387Z,43.00
2022-12-01T10:49:38.375Z,35.90
2022-12-01T10:50:45.778Z,40.70
2022-12-01T10:53:17.348Z,42.10
2022-12-01T10:54:20.272Z,37.90
2022-12-01T10:55:26.224Z,36.09
2022-12-01T10:56:28.354Z,34.80
2022-12-01T10:57:30.560Z,37.40
2022-12-01T10:58:33.641Z,34.60
2022-12-01T10:59:39.869Z,34.00
2022-12-01T11:00:58.998Z,32.80
2022-12-01T11:01:47.494Z,35.10
2022-12-01T11:02:50.319Z,34.30
2022-12-01T11:03:59.246Z,34.00
2022-12-01T11:05:05.823Z,33.40
2022-12-01T11:06:08.771Z,32.50
2022-12-01T11:07:28.886Z,33.30
2022-12-01T11:08:38.021Z,33.70
2022-12-01T11:09:40.195Z,31.50
2022-12-01T11:10:42.280Z,33.20
2022-12-01T11:11:44.373Z,34.90
2022-12-01T11:13:00.931Z,32.90
2022-12-01T11:14:06.311Z,34.70
2022-12-01T11:15:26.899Z,33.10
2022-12-01T11:18:01.656Z,36.00
2022-12-01T11:19:10.841Z,35.90
2022-12-01T11:20:27.004Z,34.90
2022-12-01T11:21:29.545Z,34.70
2022-12-01T11:22:31.918Z,36.50
2022-12-01T11:23:38.965Z,34.70
2022-12-01T11:24:43.117Z,35.70
2022-12-01T11:27:25.506Z,33.40
2022-12-01T11:28:27.851Z,33.80
2022-12-01T11:29:35.786Z,34.70
2022-12-01T11:30:40.209Z,33.30
2022-12-01T11:31:45.185Z,34.50
2022-12-01T11:32:53.351Z,33.80
2022-12-01T11:33:55.874Z,33.20
2022-12-01T11:35:03.079Z,30.80
2022-12-01T11:36:06.220Z,31.30
2022-12-01T11:37:10.727Z,33.36
2022-12-01T11:38:32.080Z,31.40
2022-12-01T11:39:37.229Z,30.80
2022-12-01T11:42:00.274Z,30.30
2022-12-01T11:43:04.358Z,30.30
2022-12-01T11:44:28.633Z,30.40
2022-12-01T11:45:23.620Z,31.10
2022-12-01T11:46:28.578Z,27.40
2022-12-01T11:47:31.650Z,28.30
2022-12-01T11:48:34.346Z,27.30
2022-12-01T11:49:40.081Z,27.30
2022-12-01T11:50:42.566Z,27.40
2022-12-01T11:51:45.415Z,27.70
2022-12-01T11:52:47.672Z,26.91
2022-12-01T11:53:50.112Z,27.20
2022-12-01T11:54:57.224Z,25.40
2022-12-01T11:56:24.075Z,24.60
2022-12-01T11:57:35.485Z,24.90
2022-12-01T11:58:32.120Z,22.90
2022-12-01T11:59:34.290Z,19.00
2022-12-01T12:02:08.116Z,21.30
2022-12-01T12:04:45.907Z,21.30
2022-12-01T12:06:38.947Z,21.80
2022-12-01T12:07:28.765Z,20.50
2022-12-01T12:08:51.632Z,19.40
2022-12-01T12:10:12.927Z,19.00
2022-12-01T12:11:24.963Z,18.60
2022-12-01T12:12:46.901Z,18.10
2022-12-01T12:14:19.843Z,20.00
2022-12-01T12:15:35.104Z,16.70
2022-12-01T12:16:47.234Z,17.30
2022-12-01T12:18:20.045Z,16.50
2022-12-01T12:20:06.093Z,16.70
2022-12-01T12:20:50.143Z,16.30
2022-12-01T12:22:14.681Z,16.10
2022-12-01T12:23:32.841Z,17.40
2022-12-01T12:24:55.012Z,17.60
2022-12-01T12:26:21.154Z,18.10
2022-12-01T12:27:36.176Z,18.40
2022-12-01T12:28:43.417Z,18.10
2022-12-01T12:30:08.858Z,15.40
2022-12-01T12:31:14.876Z,11.80
2022-12-01T12:32:40.061Z,15.90
2022-12-01T12:34:06.838Z,17.20
2022-12-01T12:35:21.783Z,14.60
2022-12-01T12:36:39.933Z,12.90
2022-12-01T12:39:26.598Z,13.20
2022-12-01T12:40:51.179Z,10.90
2022-12-01T12:41:56.306Z,13.80
2022-12-01T12:43:18.841Z,14.10
2022-12-01T12:44:49.315Z,13.90
2022-12-01T12:46:15.278Z,14.30
2022-12-01T12:47:40.903Z,12.40
2022-12-01T12:50:07.397Z,11.20
2022-12-01T12:51:20.988Z,13.20
2022-12-01T12:52:33.746Z,12.90
2022-12-01T12:55:14.293Z,10.40
2022-12-01T12:56:18.499Z,11.30
2022-12-01T12:58:41.079Z,11.30
2022-12-01T12:59:49.506Z,10.20
2022-12-01T13:00:55.798Z,9.10
2022-12-01T13:02:13.738Z,9.10
2022-12-01T13:04:42.533Z,8.00
2022-12-01T13:05:49.498Z,11.90
2022-12-01T13:06:59.751Z,11.90
2022-12-01T13:08:15.821Z,11.40
2022-12-01T13:09:23.767Z,11.00
2022-12-01T13:10:29.793Z,10.30
2022-12-01T13:11:36.166Z,11.60
2022-12-01T13:12:40.937Z,11.20
2022-12-01T13:13:57.139Z,11.60
2022-12-01T13:16:33.926Z,9.30
2022-12-01T13:17:37.734Z,9.70
2022-12-01T13:18:52.137Z,11.50
2022-12-01T13:19:54.415Z,12.10
2022-12-01T13:20:56.512Z,12.10
2022-12-01T13:21:59.411Z,11.00
2022-12-01T13:23:02.627Z,10.70
2022-12-01T13:24:05.386Z,8.90
2022-12-01T13:25:09.767Z,11.36
2022-12-01T13:26:14.395Z,11.40
2022-12-01T13:27:20.577Z,12.10
2022-12-01T13:28:28.362Z,8.80
2022-12-01T13:29:33.396Z,11.70
2022-12-01T13:30:35.607Z,10.70
2022-12-01T13:31:42.367Z,10.90
2022-12-01T13:32:44.904Z,11.00
2022-12-01T13:34:03.634Z,9.50
2022-12-01T13:35:26.414Z,12.20
2022-12-01T13:36:46.139Z,10.80
2022-12-01T13:37:36.286Z,8.80
2022-12-01T13:38:42.185Z,9.40
2022-12-01T13:39:45.603Z,10.20
2022-12-01T13:40:48.475Z,10.70
2022-12-01T13:42:00.709Z,9.80
2022-12-01T13:43:10.292Z,11.80
2022-12-01T13:44:40.503Z,10.40
2022-12-01T13:45:43.151Z,11.00
2022-12-01T13:46:49.521Z,11.10
2022-12-01T13:47:53.990Z,12.00
2022-12-01T13:48:57.942Z,11.40
2022-12-01T13:50:20.273Z,11.50
2022-12-01T13:51:23.598Z,11.40
2022-12-01T13:52:28.960Z,11.80
2022-12-01T13:53:35.915Z,11.90
2022-12-01T13:54:40.340Z,10.90
2022-12-01T13:55:58.625Z,11.60
2022-12-01T13:57:03.222Z,13.60
2022-12-01T13:58:09.264Z,10.90
2022-12-01T14:00:47.424Z,12.10
2022-12-01T14:01:51.036Z,12.20
2022-12-01T14:03:17.128Z,10.80
2022-12-01T14:04:26.134Z,13.20
2022-12-01T14:05:56.348Z,11.50
2022-12-01T14:08:29.455Z,11.90
2022-12-01T14:09:36.323Z,11.40
2022-12-01T14:10:38.608Z,11.40
2022-12-01T14:11:40.714Z,13.70
2022-12-01T14:12:44.097Z,12.20
2022-12-01T14:13:53.850Z,11.90
2022-12-01T14:14:59.780Z,11.50
2022-12-01T14:16:02.961Z,12.90
2022-12-01T14:17:06.476Z,11.70
2022-12-01T14:18:27.671Z,13.30
2022-12-01T14:19:34.652Z,13.40
2022-12-01T14:20:40.703Z,14.40
2022-12-01T14:23:16.820Z,11.80
2022-12-01T14:24:23.708Z,6.70
2022-12-01T14:25:27.187Z,12.10
2022-12-01T14:26:29.713Z,11.00
2022-12-01T14:27:37.676Z,11.10
2022-12-01T14:29:01.674Z,11.80
2022-12-01T14:30:43.830Z,11.60
2022-12-01T14:31:55.516Z,11.50
2022-12-01T14:34:37.373Z,9.50
2022-12-01T14:35:39.503Z,10.00
2022-12-01T14:36:43.284Z,10.70
2022-12-01T14:37:47.693Z,11.30
2022-12-01T14:39:02.910Z,11.00
2022-12-01T14:41:24.526Z,11.10
2022-12-01T14:42:38.415Z,11.00
2022-12-01T14:43:41.048Z,12.20
2022-12-01T14:44:47.680Z,10.90
2022-12-01T14:45:56.109Z,9.90
2022-12-01T14:47:07.334Z,10.50
2022-12-01T14:48:12.303Z,10.00
2022-12-01T14:49:18.957Z,9.80
2022-12-01T14:50:46.596Z,9.80
2022-12-01T14:51:49.312Z,8.70
2022-12-01T14:52:55.062Z,11.10
2022-12-01T14:53:57.866Z,10.30
2022-12-01T18:09:47.818Z,20.90
2022-12-01T18:10:50.159Z,18.30
2022-12-01T18:11:54.500Z,15.80
2022-12-01T18:12:56.720Z,16.10
2022-12-01T18:14:02.826Z,16.20
2022-12-01T18:15:06.758Z,9.80
2022-12-01T18:16:14.547Z,16.80
2022-12-01T18:17:17.675Z,16.90
2022-12-01T18:18:19.814Z,13.82
2022-12-01T18:19:21.917Z,15.60
2022-12-01T18:20:24.175Z,15.30
2022-12-01T18:21:27.201Z,10.40
2022-12-01T18:22:29.370Z,14.40
2022-12-01T18:23:33.478Z,18.00
2022-12-01T18:24:36.372Z,16.50
2022-12-01T18:25:39.592Z,15.18
2022-12-01T18:26:43.683Z,16.30
2022-12-01T18:27:46.679Z,16.00
2022-12-01T18:33:14.874Z,15.50
2022-12-01T18:35:19.857Z,14.70
2022-12-01T18:36:23.910Z,15.10
2022-12-01T18:37:27.218Z,16.10
2022-12-01T18:38:30.375Z,17.90
2022-12-01T18:39:34.605Z,14.80
2022-12-01T18:40:38.485Z,16.90
2022-12-01T18:41:41.028Z,19.10
2022-12-01T18:42:44.217Z,15.60
2022-12-01T18:43:47.619Z,4.10
2022-12-01T18:46:54.994Z,14.30
2022-12-01T18:47:59.219Z,16.70
2022-12-01T18:49:03.341Z,15.60
2022-12-01T18:51:09.610Z,15.30
2022-12-01T18:52:12.612Z,15.40
2022-12-01T18:53:16.151Z,16.00
2022-12-01T18:54:18.187Z,16.45
2022-12-01T18:55:20.527Z,16.10
2022-12-01T18:56:23.350Z,16.30
2022-12-01T18:57:25.986Z,16.70
2022-12-01T18:58:29.764Z,15.73
2022-12-01T18:59:31.996Z,8.60
2022-12-01T19:00:36.596Z,15.50
2022-12-01T19:01:41.164Z,16.00
2022-12-01T19:02:44.041Z,17.80
2022-12-01T19:03:46.424Z,16.10
2022-12-01T19:04:49.070Z,12.60
2022-12-01T19:05:51.984Z,17.20
2022-12-01T19:06:55.957Z,16.55
2022-12-01T19:08:00.027Z,16.00
2022-12-01T19:09:03.542Z,14.40
2022-12-01T19:10:07.404Z,17.00
2022-12-01T19:11:09.733Z,16.10
2022-12-01T19:12:12.027Z,8.20
2022-12-01T19:13:14.728Z,14.55
2022-12-01T19:14:18.825Z,13.90
2022-12-01T19:15:22.171Z,14.20
2022-12-01T19:16:28.044Z,15.80
2022-12-01T19:17:31.348Z,16.50
2022-12-01T19:18:35.683Z,14.70
2022-12-01T19:19:37.931Z,15.60
2022-12-01T19:20:42.524Z,17.80
2022-12-01T19:21:46.339Z,16.80
2022-12-01T19:22:48.648Z,14.20
2022-12-01T19:23:51.560Z,14.10
2022-12-01T19:24:55.901Z,15.60
2022-12-01T19:26:01.788Z,14.90
2022-12-01T19:27:05.426Z,15.40
2022-12-01T19:28:07.600Z,16.40
2022-12-01T19:29:10.924Z,14.60
2022-12-01T19:30:15.608Z,15.00
2022-12-01T19:31:20.676Z,17.30
2022-12-01T19:32:24.945Z,16.50
2022-12-01T19:34:34.450Z,15.60
2022-12-01T19:38:45.241Z,18.30
2022-12-01T19:39:52.944Z,16.10
2022-12-01T19:40:56.212Z,16.90
2022-12-01T19:41:59.936Z,15.50
2022-12-01T19:43:03.682Z,15.80
2022-12-01T19:44:09.131Z,16.00
2022-12-01T19:45:13.932Z,15.70
2022-12-01T19:46:19.013Z,14.40
2022-12-01T19:47:25.661Z,15.00
2022-12-01T19:49:31.067Z,14.70
2022-12-01T19:50:34.880Z,16.70
2022-12-01T19:51:38.122Z,15.00
2022-12-01T19:52:40.632Z,15.10
2022-12-01T19:53:43.112Z,15.40
2022-12-01T19:54:48.895Z,14.64
2022-12-01T19:55:52.700Z,17.70
2022-12-01T19:57:01.619Z,15.80
2022-12-01T19:58:04.079Z,17.90
2022-12-01T19:59:06.088Z,19.00
2022-12-01T20:01:17.035Z,17.70
2022-12-01T20:02:19.797Z,15.30
2022-12-01T20:03:24.136Z,17.10
2022-12-01T20:05:30.064Z,18.40
2022-12-01T20:06:33.415Z,17.10
2022-12-01T20:07:36.644Z,16.90
2022-12-01T20:11:53.097Z,16.10
2022-12-01T20:13:58.436Z,15.70
2022-12-01T20:15:00.538Z,15.30
2022-12-01T20:16:04.698Z,17.40
2022-12-01T20:19:11.677Z,17.30
2022-12-01T20:20:14.791Z,17.50
2022-12-01T20:21:22.876Z,16.60
2022-12-01T20:22:24.999Z,17.30
2022-12-01T20:23:28.243Z,16.30
2022-12-01T20:24:31.303Z,19.20
2022-12-01T20:25:34.178Z,18.80
2022-12-01T20:26:38.659Z,18.00
2022-12-01T20:27:40.794Z,17.40
2022-12-01T20:28:43.786Z,18.10
2022-12-01T20:29:47.395Z,19.00
2022-12-01T20:30:50.519Z,18.30
2022-12-01T20:31:55.599Z,19.80
2022-12-01T20:32:57.897Z,16.40
2022-12-01T20:34:04.158Z,16.40
2022-12-01T20:35:07.201Z,18.70
2022-12-01T20:36:10.818Z,18.30
2022-12-01T20:37:14.793Z,18.50
2022-12-01T20:39:21.088Z,10.90
2022-12-01T20:40:24.773Z,19.80
2022-12-01T20:41:27.496Z,15.50
2022-12-01T20:42:29.605Z,17.00
2022-12-01T20:45:38.232Z,17.10
2022-12-01T20:47:43.916Z,17.10
2022-12-01T20:54:27.436Z,16.90
2022-12-01T20:55:07.253Z,19.20
2022-12-01T20:57:13.467Z,18.30
2022-12-01T20:59:19.092Z,19.20
2022-12-01T21:00:22.816Z,17.60
2022-12-01T21:01:26.667Z,17.60
2022-12-01T21:06:43.588Z,18.10
2022-12-01T21:08:49.965Z,15.10
2022-12-01T21:12:59.552Z,15.70
2022-12-01T21:14:01.666Z,15.20
2022-12-01T21:15:28.287Z,15.10
2022-12-01T21:17:40.383Z,17.40
2022-12-01T21:18:51.802Z,17.90
2022-12-01T21:20:00.220Z,16.00
2022-12-01T21:21:06.209Z,15.70
2022-12-01T21:22:12.613Z,16.90
2022-12-01T21:23:15.246Z,17.20
2022-12-01T21:24:18.357Z,16.70
2022-12-01T21:25:22.415Z,15.50
2022-12-01T21:26:25.067Z,18.00
2022-12-01T21:27:28.073Z,16.00
2022-12-01T21:28:30.211Z,15.60
2022-12-01T21:29:39.773Z,16.60
2022-12-01T21:30:42.659Z,13.50
2022-12-01T21:31:46.297Z,15.70
2022-12-01T21:32:48.783Z,16.30
2022-12-01T21:33:51.836Z,16.30
2022-12-01T21:34:53.985Z,17.50
2022-12-01T21:35:59.088Z,16.64
2022-12-01T21:37:04.162Z,16.00
2022-12-01T21:38:12.310Z,15.60
2022-12-01T21:39:16.965Z,19.50
2022-12-01T21:40:26.255Z,15.40
2022-12-01T21:41:30.210Z,16.20
2022-12-01T21:42:32.415Z,15.70
2022-12-01T21:43:38.491Z,16.80
2022-12-01T21:44:40.655Z,15.30
2022-12-01T21:45:42.826Z,16.90
2022-12-01T21:46:45.342Z,14.80
2022-12-01T21:47:47.410Z,16.30
2022-12-01T21:48:49.385Z,16.50
2022-12-01T21:49:54.404Z,15.60
2022-12-01T21:50:58.926Z,16.50
2022-12-01T21:52:03.056Z,14.00
2022-12-01T21:53:15.226Z,15.40
2022-12-01T21:54:21.129Z,15.80
2022-12-01T21:55:27.096Z,15.70
2022-12-01T21:56:30.354Z,11.90
2022-12-01T21:57:42.835Z,14.90
2022-12-01T21:58:45.225Z,16.50
2022-12-01T21:59:48.927Z,17.00
2022-12-01T22:00:52.072Z,13.70
2022-12-01T22:01:56.010Z,15.40
2022-12-01T22:03:33.991Z,15.10
2022-12-01T22:04:38.039Z,16.70
2022-12-01T22:06:01.045Z,15.40
2022-12-01T22:06:53.665Z,16.90
2022-12-01T22:09:31.201Z,17.30
2022-12-01T22:10:58.068Z,13.60
2022-12-01T22:12:16.056Z,14.90
2022-12-01T22:13:18.898Z,15.80
2022-12-01T22:14:23.158Z,14.73
2022-12-01T22:15:31.889Z,15.30
2022-12-01T22:17:57.798Z,14.70
2022-12-01T22:19:02.590Z,14.89
